Time;durP1;ratioP1;P1;durP2;ratioP2;P2;SDS_P1;SDS_P2;PMS_P1;PMS_P2;Temp;Humidity;BMP_temperature;BMP_pressure;BME280_temperature;BME280_humidity;BME280_pressure;Samples;Min_cycle;Max_cycle;Signal;HPM_P1;HPM_P2
2023/07/04 00:00:23;;;;;;;20.80;6.82;;;;;;;20.82;100.00;98580.47;4976262;28;20035;-90
2023/07/04 00:02:49;;;;;;;22.33;7.65;;;;;;;20.84;100.00;98580.34;4955953;28;20114;-89
2023/07/04 00:05:17;;;;;;;20.92;8.57;;;;;;;20.75;100.00;98554.84;4979897;28;20039;-91
2023/07/04 00:07:42;;;;;;;22.73;7.78;;;;;;;20.72;100.00;98550.53;4957767;28;20047;-92
2023/07/04 00:10:09;;;;;;;25.40;8.23;;;;;;;20.87;100.00;98580.16;4962801;28;20042;-89
2023/07/04 00:12:35;;;;;;;24.15;7.80;;;;;;;20.87;100.00;98581.00;4962373;28;20051;-89
2023/07/04 00:15:03;;;;;;;25.10;8.13;;;;;;;20.71;100.00;98570.44;4957116;28;20049;-88
2023/07/04 00:17:29;;;;;;;21.83;8.18;;;;;;;20.72;100.00;98582.97;4960854;28;20043;-91
2023/07/04 00:19:55;;;;;;;28.23;7.72;;;;;;;20.63;100.00;98572.81;4961349;28;20374;-89
2023/07/04 00:22:23;;;;;;;26.27;8.15;;;;;;;20.74;100.00;98588.28;4962301;28;20043;-89
2023/07/04 00:24:49;;;;;;;;;;;;;;;20.72;100.00;98592.91;4958557;28;20054;-90
2023/07/04 00:27:15;;;;;;;21.60;7.85;;;;;;;20.58;100.00;98569.59;4975504;28;19922;-89
2023/07/04 00:29:41;;;;;;;26.65;8.27;;;;;;;20.53;100.00;98556.34;4961995;28;20512;-91
2023/07/04 00:32:09;;;;;;;25.67;8.85;;;;;;;20.62;100.00;98570.22;4958781;28;20039;-91
2023/07/04 00:34:35;;;;;;;30.05;9.07;;;;;;;20.55;100.00;98563.50;4960608;28;20572;-91
2023/07/04 00:37:01;;;;;;;24.13;8.18;;;;;;;20.60;100.00;98577.56;4962746;28;20039;-89
2023/07/04 00:39:29;;;;;;;22.85;8.38;;;;;;;20.66;100.00;98585.25;4975306;28;20069;-89
2023/07/04 00:41:56;;;;;;;24.63;7.80;;;;;;;20.59;100.00;98584.81;4958096;28;20057;-90
2023/07/04 00:44:24;;;;;;;23.05;8.95;;;;;;;20.55;100.00;98596.78;4957685;28;20094;-89
2023/07/04 00:46:54;;;;;;;27.42;8.73;;;;;;;20.52;100.00;98592.47;4961003;28;20043;-90
2023/07/04 00:49:23;;;;;;;30.52;9.48;;;;;;;20.44;100.00;98594.84;4957875;28;20043;-90
2023/07/04 00:52:00;;;;;;;27.02;9.07;;;;;;;20.44;100.00;98599.38;4962932;28;20034;-90
2023/07/04 00:54:37;;;;;;;26.63;8.52;;;;;;;20.29;100.00;98591.38;4958605;28;20134;-90
2023/07/04 00:57:06;;;;;;;27.05;8.20;;;;;;;20.36;100.00;98596.34;4976366;28;20102;-90
2023/07/04 00:59:32;;;;;;;;;;;;;;;20.34;100.00;98598.28;4969009;28;20047;-91
2023/07/04 01:01:59;;;;;;;24.58;7.75;;;;;;;20.28;100.00;98588.81;4979033;28;19977;-89
2023/07/04 01:04:25;;;;;;;24.58;8.50;;;;;;;20.16;100.00;98574.31;4961208;28;20430;-89
2023/07/04 01:06:59;;;;;;;24.98;8.63;;;;;;;20.11;100.00;98574.63;4969388;28;20034;-91
2023/07/04 01:09:28;;;;;;;36.17;9.52;;;;;;;20.01;100.00;98559.16;4965077;28;20070;-91
2023/07/04 01:11:54;;;;;;;23.23;8.80;;;;;;;20.05;100.00;98576.88;4967236;28;20547;-90
2023/07/04 01:14:22;;;;;;;26.00;8.68;;;;;;;19.93;100.00;98562.41;4979208;28;20062;-91
2023/07/04 01:16:50;;;;;;;25.88;8.73;;;;;;;19.87;100.00;98561.00;4963892;28;20046;-91
2023/07/04 01:19:25;;;;;;;30.67;9.05;;;;;;;19.90;100.00;98582.34;4967194;28;20424;-91
2023/07/04 01:22:01;;;;;;;34.58;8.70;;;;;;;19.75;100.00;98551.03;4967248;28;20045;-91
2023/07/04 01:24:36;;;;;;;32.60;9.75;;;;;;;19.77;100.00;98565.28;4979174;28;20725;-91
2023/07/04 01:27:04;;;;;;;30.35;9.02;;;;;;;19.77;100.00;98572.50;4967628;28;20097;-91
2023/07/04 01:29:31;;;;;;;21.60;9.50;;;;;;;19.71;100.00;98573.78;4966702;28;20047;-92
2023/07/04 01:32:02;;;;;;;27.70;9.70;;;;;;;19.56;100.00;98572.09;4963269;28;20043;-91
2023/07/04 01:34:28;;;;;;;26.35;8.90;;;;;;;19.54;100.00;98592.91;4977653;28;20050;-92
2023/07/04 01:36:54;;;;;;;28.58;8.75;;;;;;;19.42;100.00;98603.53;4964155;28;20067;-90
2023/07/04 01:39:21;;;;;;;24.85;10.02;;;;;;;19.23;100.00;98594.94;4978492;28;20038;-90
2023/07/04 01:41:47;;;;;;;25.83;8.88;;;;;;;19.16;100.00;98582.81;4969135;28;20137;-90
2023/07/04 01:44:16;;;;;;;28.30;9.40;;;;;;;19.08;100.00;98586.00;4965694;28;20122;-91
2023/07/04 01:46:44;;;;;;;25.13;8.55;;;;;;;19.19;100.00;98605.06;4959550;28;20048;-92
2023/07/04 01:49:10;;;;;;;27.02;9.10;;;;;;;19.12;100.00;98605.53;4962971;28;20079;-90
2023/07/04 01:51:39;;;;;;;28.13;8.57;;;;;;;19.06;100.00;98602.28;4966311;28;20066;-91
2023/07/04 01:54:07;;;;;;;26.45;9.80;;;;;;;19.07;100.00;98622.03;4969085;28;20070;-90
2023/07/04 01:56:36;;;;;;;26.88;9.07;;;;;;;18.94;100.00;98595.00;4978741;28;20047;-91
2023/07/04 01:59:01;;;;;;;;;;;;;;;19.05;100.00;98622.09;4964174;28;20039;-89
2023/07/04 02:01:29;;;;;;;29.50;8.90;;;;;;;18.93;100.00;98598.63;4981209;28;20287;-90
2023/07/04 02:03:55;;;;;;;28.98;9.18;;;;;;;18.90;100.00;98598.84;4961929;28;20097;-91
2023/07/04 02:06:20;;;;;;;29.45;9.40;;;;;;;18.96;100.00;98587.69;4963212;28;20043;-89
2023/07/04 02:08:46;;;;;;;27.08;8.48;;;;;;;18.93;100.00;98592.38;4964701;28;20453;-91
2023/07/04 02:11:12;;;;;;;30.52;9.60;;;;;;;18.91;100.00;98595.19;4961211;28;20046;-91
2023/07/04 02:13:38;;;;;;;33.72;10.23;;;;;;;18.75;100.00;98573.69;4967136;28;20039;-90
2023/07/04 02:16:05;;;;;;;24.45;9.23;;;;;;;18.75;100.00;98589.00;4959150;28;20043;-91
2023/07/04 02:18:32;;;;;;;31.52;9.93;;;;;;;18.75;100.00;98594.41;4981180;28;20046;-91
2023/07/04 02:20:58;;;;;;;29.73;9.32;;;;;;;18.68;100.00;98581.31;4960957;28;20505;-90
2023/07/04 02:23:24;;;;;;;26.48;9.88;;;;;;;18.68;100.00;98593.91;4970592;28;20044;-91
2023/07/04 02:25:52;;;;;;;30.00;10.55;;;;;;;18.80;100.00;98614.75;4964390;28;20039;-89
2023/07/04 02:28:18;;;;;;;24.15;8.82;;;;;;;18.74;100.00;98598.06;4964030;28;20047;-91
2023/07/04 02:30:52;;;;;;;31.85;9.80;;;;;;;18.86;100.00;98613.47;4966015;28;20050;-91
2023/07/04 02:33:18;;;;;;;27.40;9.15;;;;;;;18.70;100.00;98591.13;4969053;28;20043;-91
2023/07/04 02:35:47;;;;;;;33.20;9.70;;;;;;;18.73;100.00;98599.88;4964177;28;20493;-91
2023/07/04 02:38:13;;;;;;;31.15;9.75;;;;;;;18.69;100.00;98587.56;4972291;28;20054;-91
2023/07/04 02:40:42;;;;;;;28.70;10.05;;;;;;;18.92;100.00;98618.47;4965222;28;20493;-90
2023/07/04 02:43:08;;;;;;;34.25;10.55;;;;;;;18.97;100.00;98624.41;4965705;28;20054;-90
2023/07/04 02:45:34;;;;;;;25.98;9.25;;;;;;;18.89;100.00;98607.91;4977994;28;20043;-91
2023/07/04 02:48:00;;;;;;;29.58;9.73;;;;;;;18.96;100.00;98609.22;4972097;28;20519;-92
2023/07/04 02:50:26;;;;;;;32.78;10.10;;;;;;;18.88;100.00;98607.00;4977159;28;20040;-91
2023/07/04 02:52:53;;;;;;;33.35;9.93;;;;;;;18.99;100.00;98613.56;4983159;28;20047;-92
2023/07/04 02:55:19;;;;;;;27.02;10.07;;;;;;;18.88;100.00;98600.75;4969884;28;20039;-92
2023/07/04 02:57:45;;;;;;;26.02;9.65;;;;;;;19.09;100.00;98618.25;4963990;28;20050;-90
2023/07/04 03:00:11;;;;;;;27.77;10.85;;;;;;;19.08;100.00;98615.66;4965231;28;20095;-91
2023/07/04 03:02:37;;;;;;;32.22;10.30;;;;;;;19.02;100.00;98619.63;4971736;28;20120;-91
2023/07/04 03:05:04;;;;;;;25.48;9.63;;;;;;;18.98;100.00;98611.84;4980778;28;20480;-91
2023/07/04 03:07:30;;;;;;;34.95;10.27;;;;;;;18.93;100.00;98620.19;4964780;28;20057;-90
2023/07/04 03:09:57;;;;;;;29.92;9.40;;;;;;;19.01;100.00;98634.03;4967479;28;20134;-91
2023/07/04 03:12:23;;;;;;;36.40;9.90;;;;;;;19.00;100.00;98637.72;4979384;28;20093;-91
2023/07/04 03:14:49;;;;;;;27.98;9.05;;;;;;;18.95;100.00;98628.19;4967475;28;20389;-90
2023/07/04 03:17:15;;;;;;;28.48;8.95;;;;;;;18.85;100.00;98609.06;4962387;28;20432;-90
2023/07/04 03:19:41;;;;;;;27.40;9.45;;;;;;;18.84;100.00;98601.91;4962904;28;20043;-90
2023/07/04 03:22:06;;;;;;;30.70;9.50;;;;;;;18.94;100.00;98621.94;4961326;28;20067;-90
2023/07/04 03:24:32;;;;;;;31.65;9.90;;;;;;;18.94;100.00;98613.00;4981269;28;20058;-91
2023/07/04 03:27:00;;;;;;;28.10;9.20;;;;;;;18.94;100.00;98613.84;4977186;28;20062;-90
2023/07/04 03:29:25;;;;;;;28.20;9.70;;;;;;;18.77;100.00;98604.09;4970159;28;20047;-91
2023/07/04 03:31:51;;;;;;;28.20;9.10;;;;;;;18.72;100.00;98598.16;4964532;28;20039;-90
2023/07/04 03:34:17;;;;;;;27.60;8.82;;;;;;;18.68;100.00;98600.16;4981338;28;20051;-91
2023/07/04 03:36:43;;;;;;;22.95;9.82;;;;;;;18.73;100.00;98615.19;4962715;28;20051;-91
2023/07/04 03:39:09;;;;;;;32.30;9.63;;;;;;;18.68;100.00;98607.38;4965028;28;20019;-91
2023/07/04 03:41:35;;;;;;;31.38;9.82;;;;;;;18.77;100.00;98611.31;4982060;28;20110;-90
2023/07/04 03:44:02;;;;;;;24.17;8.93;;;;;;;18.84;100.00;98618.94;4978167;28;20042;-90
2023/07/04 03:46:28;;;;;;;27.45;9.80;;;;;;;18.82;100.00;98601.16;4961026;28;20043;-91
2023/07/04 03:48:54;;;;;;;27.90;9.98;;;;;;;18.79;100.00;98595.97;4969021;28;20492;-91
2023/07/04 03:51:19;;;;;;;24.35;8.90;;;;;;;18.85;100.00;98598.28;4964099;28;20043;-91
2023/07/04 03:53:48;;;;;;;29.17;9.50;;;;;;;18.82;100.00;98595.75;4964814;28;20039;-91
2023/07/04 03:56:15;;;;;;;28.95;8.93;;;;;;;18.89;100.00;98607.91;4965373;28;20416;-91
2023/07/04 03:58:41;;;;;;;29.15;9.45;;;;;;;18.82;100.00;98598.44;4965135;28;20508;-91
2023/07/04 04:01:08;;;;;;;25.70;8.40;;;;;;;18.79;100.00;98588.75;4964756;28;20039;-91
2023/07/04 04:03:38;;;;;;;33.17;9.98;;;;;;;18.82;100.00;98595.75;4958509;28;20043;-90
2023/07/04 04:06:04;;;;;;;27.63;9.15;;;;;;;18.82;100.00;98596.66;4968140;28;20051;-90
2023/07/04 04:08:30;;;;;;;28.30;9.20;;;;;;;18.69;100.00;98579.47;4959614;28;20039;-92
2023/07/04 04:10:56;;;;;;;30.25;9.40;;;;;;;18.72;100.00;98592.78;4964840;28;20046;-91
2023/07/04 04:13:22;;;;;;;29.73;9.25;;;;;;;18.72;100.00;98590.06;4968432;28;20042;-91
2023/07/04 04:15:48;;;;;;;30.08;9.63;;;;;;;18.76;100.00;98593.41;4961428;28;20462;-92
2023/07/04 04:18:15;;;;;;;25.55;9.40;;;;;;;18.57;100.00;98562.28;4968987;28;20067;-92
2023/07/04 04:20:41;;;;;;;31.75;9.65;;;;;;;18.67;100.00;98576.91;4960582;28;20039;-91
2023/07/04 04:23:07;;;;;;;31.60;9.10;;;;;;;18.74;100.00;98588.16;4967254;28;20094;-91
2023/07/04 04:25:38;;;;;;;28.83;9.02;;;;;;;18.63;100.00;98569.97;4966929;28;20577;-92
2023/07/04 04:28:04;;;;;;;26.95;8.95;;;;;;;18.62;100.00;98587.06;4962688;28;20039;-91
2023/07/04 04:30:30;;;;;;;33.53;10.57;;;;;;;18.57;100.00;98589.22;4976823;28;20476;-91
2023/07/04 04:32:56;;;;;;;28.80;10.15;;;;;;;18.63;100.00;98598.75;4960697;28;20047;-91
2023/07/04 04:35:25;;;;;;;31.83;10.38;;;;;;;18.54;100.00;98585.81;4967850;28;20039;-91
2023/07/04 04:37:51;;;;;;;35.47;10.48;;;;;;;18.64;100.00;98593.25;4959384;28;20075;-90
2023/07/04 04:40:17;;;;;;;32.42;9.95;;;;;;;18.71;100.00;98582.09;4964725;28;20074;-91
2023/07/04 04:42:43;;;;;;;29.60;9.68;;;;;;;18.84;100.00;98588.44;4966617;28;20043;-92
2023/07/04 04:45:11;;;;;;;27.55;9.85;;;;;;;19.06;100.00;98596.91;4969322;28;20031;-91
2023/07/04 04:47:39;;;;;;;28.57;10.00;;;;;;;19.10;100.00;98594.84;4961073;28;20054;-91
2023/07/04 04:50:06;;;;;;;30.25;11.10;;;;;;;19.07;100.00;98585.16;4972369;28;20281;-90
2023/07/04 04:52:33;;;;;;;33.40;11.77;;;;;;;19.18;100.00;98575.50;4966620;28;21412;-91
2023/07/04 04:55:01;;;;;;;27.23;10.32;;;;;;;19.37;100.00;98576.03;4965977;28;20043;-91
2023/07/04 04:57:27;;;;;;;34.20;10.38;;;;;;;19.76;100.00;98585.16;4967944;28;20163;-90
2023/07/04 04:59:56;;;;;;;33.03;10.07;;;;;;;20.27;100.00;98562.75;4963927;28;20023;-92
2023/07/04 05:02:23;;;;;;;23.60;9.02;;;;;;;21.10;100.00;98581.16;4965644;28;20055;-91
2023/07/04 05:04:49;;;;;;;29.10;9.45;;;;;;;21.57;100.00;98557.00;4965090;28;20043;-92
2023/07/04 05:07:15;;;;;;;29.55;8.85;;;;;;;21.96;100.00;98555.78;4963745;28;20054;-91
2023/07/04 05:09:42;;;;;;;24.02;8.48;;;;;;;22.42;100.00;98570.31;4962037;28;20067;-91
2023/07/04 05:12:08;;;;;;;26.92;9.13;;;;;;;22.78;100.00;98582.81;4965287;28;20031;-90
2023/07/04 05:14:34;;;;;;;24.30;9.27;;;;;;;23.10;100.00;98580.22;4962541;28;20054;-91
2023/07/04 05:17:00;;;;;;;22.30;8.20;;;;;;;23.35;100.00;98570.06;4967141;28;20047;-91
2023/07/04 05:19:26;;;;;;;25.27;9.07;;;;;;;23.45;100.00;98560.16;4957735;28;20039;-91
2023/07/04 05:21:52;;;;;;;26.33;9.52;;;;;;;23.69;100.00;98578.09;4964738;28;20561;-90
2023/07/04 05:24:18;;;;;;;24.05;9.40;;;;;;;23.72;100.00;98562.41;4961265;28;20138;-90
2023/07/04 05:26:45;;;;;;;25.77;9.75;;;;;;;23.86;100.00;98566.72;4964222;28;20043;-92
2023/07/04 05:29:11;;;;;;;23.83;8.38;;;;;;;23.94;100.00;98568.75;4971403;28;20125;-91
2023/07/04 05:31:36;;;;;;;33.08;9.02;;;;;;;23.99;100.00;98582.81;4962427;28;20078;-92
2023/07/04 05:34:02;;;;;;;20.73;9.05;;;;;;;23.80;100.00;98569.94;4961326;28;20131;-93
2023/07/04 05:36:30;;;;;;;23.15;8.88;;;;;;;23.89;100.00;98584.59;4965545;28;20053;-91
2023/07/04 05:38:59;;;;;;;24.58;8.57;;;;;;;23.88;100.00;98581.03;4956931;28;20046;-93
2023/07/04 05:41:27;;;;;;;26.35;9.00;;;;;;;23.87;100.00;98578.44;4967381;28;20047;-90
2023/07/04 05:43:56;;;;;;;21.40;8.25;;;;;;;23.77;100.00;98594.66;4963733;28;20404;-91
2023/07/04 05:46:22;;;;;;;25.08;8.50;;;;;;;23.92;100.00;98568.03;4963956;28;20076;-93
2023/07/04 05:48:48;;;;;;;23.95;8.55;;;;;;;24.14;100.00;98586.09;4965495;28;20055;-90
2023/07/04 05:51:16;;;;;;;23.17;8.80;;;;;;;24.08;100.00;98570.31;4969272;28;20520;-91
2023/07/04 05:53:45;;;;;;;21.98;9.00;;;;;;;24.23;100.00;98587.16;4964541;28;20422;-92
2023/07/04 05:56:13;;;;;;;24.92;8.52;;;;;;;23.89;100.00;98562.88;4972519;28;20508;-92
2023/07/04 05:58:40;;;;;;;22.38;8.50;;;;;;;24.06;100.00;98581.31;4964819;28;20070;-92
2023/07/04 06:01:10;;;;;;;22.67;8.63;;;;;;;24.18;100.00;98590.25;4978405;28;20045;-92
2023/07/04 06:03:36;;;;;;;24.20;8.38;;;;;;;24.29;100.00;98589.31;4980771;28;20094;-92
2023/07/04 06:06:03;;;;;;;22.25;8.35;;;;;;;23.93;100.00;98594.22;4970913;28;20473;-91
2023/07/04 06:08:29;;;;;;;21.98;8.65;;;;;;;23.63;100.00;98600.34;4971477;28;20067;-91
2023/07/04 06:10:59;;;;;;;25.50;8.70;;;;;;;23.41;100.00;98587.69;4971892;28;20456;-91
2023/07/04 06:13:25;;;;;;;25.73;8.95;;;;;;;23.29;100.00;98585.00;4984198;28;20489;-92
2023/07/04 06:15:51;;;;;;;22.08;8.85;;;;;;;23.41;100.00;98587.69;4980419;28;20038;-92
2023/07/04 06:18:18;;;;;;;23.92;8.23;;;;;;;23.37;100.00;98590.66;4966311;28;20039;-92
2023/07/04 06:20:44;;;;;;;26.88;8.10;;;;;;;23.47;100.00;98593.47;4966153;28;20046;-93
2023/07/04 06:23:09;;;;;;;18.45;7.50;;;;;;;23.91;100.00;98591.63;4966288;28;20019;-91
2023/07/04 06:25:35;;;;;;;17.77;7.53;;;;;;;24.33;100.00;98596.22;4962111;28;20063;-92
2023/07/04 06:28:01;;;;;;;16.30;7.45;;;;;;;24.57;100.00;98585.97;4967063;28;20049;-92
2023/07/04 06:30:30;;;;;;;26.83;8.68;;;;;;;24.58;99.00;98554.19;4975386;28;20370;-91
2023/07/04 06:32:55;;;;;;;22.00;8.07;;;;;;;24.71;99.36;98573.00;4967442;28;20058;-91
2023/07/04 06:35:23;;;;;;;22.25;8.52;;;;;;;24.62;100.00;98573.81;4970268;28;20039;-91
2023/07/04 06:37:49;;;;;;;22.45;8.27;;;;;;;24.86;99.72;98584.38;4969746;28;20054;-92
2023/07/04 06:40:15;;;;;;;24.73;8.65;;;;;;;24.07;100.00;98588.47;4968791;28;20039;-91
2023/07/04 06:42:41;;;;;;;23.38;8.65;;;;;;;24.01;100.00;98583.56;4984513;28;20078;-92
2023/07/04 06:45:07;;;;;;;24.60;8.45;;;;;;;24.41;100.00;98582.81;4963036;28;20043;-90
2023/07/04 06:47:33;;;;;;;29.80;9.88;;;;;;;24.59;100.00;98585.81;4963040;28;20907;-89
2023/07/04 06:49:59;;;;;;;25.95;8.55;;;;;;;24.55;100.00;98587.09;4964572;28;20034;-92
2023/07/04 06:52:26;;;;;;;25.52;9.05;;;;;;;24.36;100.00;98583.22;4978708;28;20070;-90
2023/07/04 06:54:52;;;;;;;24.38;9.23;;;;;;;24.71;100.00;98595.63;4965062;28;20038;-91
2023/07/04 06:57:19;;;;;;;26.33;8.75;;;;;;;24.92;100.00;98589.28;4970371;28;20094;-90
2023/07/04 06:59:45;;;;;;;22.67;8.35;;;;;;;25.09;99.31;98580.47;4961779;28;20058;-92
2023/07/04 07:02:13;;;;;;;22.55;8.65;;;;;;;24.43;99.92;98583.56;4960135;28;20126;-91
2023/07/04 07:04:39;;;;;;;24.42;8.82;;;;;;;23.93;100.00;98603.22;4971475;28;20039;-92
2023/07/04 07:07:08;;;;;;;24.15;9.07;;;;;;;24.26;100.00;98592.31;4962826;28;20524;-92
2023/07/04 07:09:38;;;;;;;20.90;7.22;;;;;;;24.62;98.32;98596.44;4973708;28;20050;-93
2023/07/04 07:12:04;;;;;;;23.63;8.65;;;;;;;24.90;95.83;98570.38;4961311;28;20401;-92
2023/07/04 07:14:30;;;;;;;24.60;7.78;;;;;;;24.94;96.56;98595.41;4963088;28;20051;-92
2023/07/04 07:16:56;;;;;;;23.48;7.82;;;;;;;24.83;95.08;98595.53;4957249;28;20375;-92
2023/07/04 07:19:23;;;;;;;35.67;8.43;;;;;;;24.24;99.62;98594.28;4970629;28;20050;-92
2023/07/04 07:21:49;;;;;;;24.55;8.00;;;;;;;24.40;97.00;98578.41;4965046;28;20039;-94
2023/07/04 07:24:15;;;;;;;26.08;7.47;;;;;;;25.04;94.05;98566.41;4966700;28;20047;-93
2023/07/04 07:26:42;;;;;;;23.80;8.52;;;;;;;25.55;91.71;98583.63;4968641;28;20038;-93
2023/07/04 07:29:08;;;;;;;20.80;7.32;;;;;;;25.08;90.91;98573.28;4971860;28;20054;-93
2023/07/04 07:31:35;;;;;;;22.00;7.00;;;;;;;24.82;91.66;98585.66;4981612;28;20074;-93
2023/07/04 07:34:02;;;;;;;29.48;8.20;;;;;;;24.71;92.72;98586.59;4963124;28;20047;-92
2023/07/04 07:36:31;;;;;;;32.92;8.07;;;;;;;24.38;96.95;98564.94;4968930;28;20090;-92
2023/07/04 07:38:58;;;;;;;20.20;7.80;;;;;;;25.02;94.96;98587.44;4978285;28;20039;-93
2023/07/04 07:41:27;;;;;;;26.60;7.43;;;;;;;24.71;95.32;98581.16;4981575;28;20438;-92
2023/07/04 07:43:54;;;;;;;22.00;8.50;;;;;;;24.95;93.54;98589.84;4971524;28;20050;-92
2023/07/04 07:46:20;;;;;;;22.30;6.95;;;;;;;25.23;94.64;98586.56;4976661;28;20066;-92
2023/07/04 07:48:48;;;;;;;17.52;7.25;;;;;;;25.74;92.51;98585.47;4959449;28;20042;-91
2023/07/04 07:51:15;;;;;;;17.90;7.15;;;;;;;26.00;87.42;98580.34;4966323;28;20042;-92
2023/07/04 07:53:43;;;;;;;19.83;7.40;;;;;;;26.31;89.28;98582.94;4962285;28;20134;-92
2023/07/04 07:56:11;;;;;;;19.13;8.17;;;;;;;26.48;84.82;98589.47;4981928;28;20035;-91
2023/07/04 07:58:38;;;;;;;19.77;7.23;;;;;;;25.59;87.55;98588.63;4960641;28;20098;-92
2023/07/04 08:01:11;;;;;;;20.10;7.00;;;;;;;25.54;90.28;98579.16;4962413;28;20316;-93
2023/07/04 08:03:37;;;;;;;19.73;7.30;;;;;;;26.37;86.40;98585.94;4956171;28;20101;-91
2023/07/04 08:06:03;;;;;;;19.17;6.97;;;;;;;26.82;84.98;98577.06;4965504;28;20512;-91
2023/07/04 08:08:29;;;;;;;15.15;6.32;;;;;;;27.30;81.37;98577.00;4966219;28;20569;-92
2023/07/04 08:10:55;;;;;;;18.40;7.35;;;;;;;27.71;77.83;98567.38;4971801;28;20039;-92
2023/07/04 08:13:21;;;;;;;18.95;6.85;;;;;;;27.79;75.34;98574.81;4974485;28;20039;-93
2023/07/04 08:15:50;;;;;;;17.60;7.18;;;;;;;28.06;74.64;98587.56;4965296;28;20556;-92
2023/07/04 08:18:18;;;;;;;21.42;6.75;;;;;;;27.68;76.79;98569.59;4982877;28;20041;-91
2023/07/04 08:20:44;;;;;;;18.63;7.00;;;;;;;27.45;75.68;98583.69;4963330;28;20106;-93
2023/07/04 08:23:09;;;;;;;22.38;7.63;;;;;;;27.46;77.69;98590.88;4964619;28;20039;-93
2023/07/04 08:25:37;;;;;;;16.65;6.78;;;;;;;27.51;76.66;98585.78;4961479;28;20405;-93
2023/07/04 08:28:03;;;;;;;13.70;6.53;;;;;;;27.61;74.95;98600.25;4965692;28;20051;-92
2023/07/04 08:30:29;;;;;;;20.33;6.80;;;;;;;28.23;72.58;98599.50;4966028;28;20528;-91
2023/07/04 08:32:55;;;;;;;16.08;7.30;;;;;;;28.25;72.34;98601.06;4960966;28;20043;-93
2023/07/04 08:35:22;;;;;;;19.98;7.28;;;;;;;27.97;59.97;98610.38;4965913;28;20528;-92
2023/07/04 08:37:49;;;;;;;18.63;6.80;;;;;;;27.83;61.38;98604.41;4961011;28;20043;-91
2023/07/04 08:40:16;;;;;;;13.98;6.47;;;;;;;27.88;59.56;98584.00;4981095;28;20339;-93
2023/07/04 08:42:43;;;;;;;18.65;6.65;;;;;;;28.23;61.59;98607.69;4963512;28;20039;-92
2023/07/04 08:45:14;;;;;;;19.13;6.78;;;;;;;28.36;59.20;98599.09;4963059;28;20036;-92
2023/07/04 08:47:40;;;;;;;15.77;6.40;;;;;;;28.62;56.51;98600.00;4970372;28;20067;-91
2023/07/04 08:50:13;;;;;;;16.98;6.53;;;;;;;28.68;56.97;98612.19;4965513;28;20178;-91
2023/07/04 08:52:46;;;;;;;14.98;6.15;;;;;;;28.17;56.24;98586.47;4965088;28;20047;-91
2023/07/04 08:55:14;;;;;;;16.25;6.32;;;;;;;27.51;59.16;98599.44;4965450;28;20031;-91
2023/07/04 08:57:45;;;;;;;14.50;6.30;;;;;;;27.16;59.63;98605.66;4965070;28;20034;-92
2023/07/04 09:00:16;;;;;;;15.52;6.13;;;;;;;27.91;60.55;98611.88;4964251;28;20125;-93
2023/07/04 09:03:02;;;;;;;15.52;6.72;;;;;;;28.11;58.04;98606.25;4963673;28;20453;-93
2023/07/04 09:05:36;;;;;;;20.08;7.22;;;;;;;28.44;57.71;98597.28;4958072;28;20130;-92
2023/07/04 09:08:12;;;;;;;16.20;6.40;;;;;;;28.74;58.74;98592.38;4966030;28;20043;-92
2023/07/04 09:10:42;;;;;;;18.20;7.35;;;;;;;29.15;56.23;98594.50;4971921;28;20493;-91
2023/07/04 09:13:12;;;;;;;14.20;6.30;;;;;;;29.35;52.90;98589.63;4963213;28;20035;-92
2023/07/04 09:15:42;;;;;;;15.30;6.43;;;;;;;28.75;52.63;98596.81;4978387;28;20035;-92
2023/07/04 09:18:21;;;;;;;13.48;6.43;;;;;;;28.74;55.28;98599.75;4964113;28;20074;-91
2023/07/04 09:20:51;;;;;;;17.30;6.75;;;;;;;29.14;54.07;98599.13;4968401;28;20038;-93
2023/07/04 09:23:22;;;;;;;12.20;6.10;;;;;;;29.19;47.86;98601.38;4966720;28;20111;-93
2023/07/04 09:25:49;;;;;;;17.70;6.35;;;;;;;28.73;48.69;98595.28;4981835;28;20468;-93
2023/07/04 09:28:15;;;;;;;12.90;5.95;;;;;;;28.94;50.74;98593.00;4965085;28;20113;-93
2023/07/04 09:30:42;;;;;;;14.48;6.07;;;;;;;28.36;51.71;98597.22;4971597;28;20050;-92
2023/07/04 09:33:09;;;;;;;14.33;6.00;;;;;;;28.35;51.05;98576.38;4981023;28;20031;-92
2023/07/04 09:35:36;;;;;;;15.80;6.47;;;;;;;28.73;51.19;98578.84;4960352;28;20047;-93
2023/07/04 09:38:02;;;;;;;13.48;5.68;;;;;;;28.60;51.33;98587.50;4972227;28;20078;-93
2023/07/04 09:40:42;;;;;;;14.70;6.32;;;;;;;28.68;51.65;98593.03;4965460;28;20043;-92
2023/07/04 09:43:09;;;;;;;14.98;5.93;;;;;;;27.60;51.14;98590.31;4960100;28;20043;-93
2023/07/04 09:45:35;;;;;;;16.15;6.15;;;;;;;28.29;52.25;98579.72;4967112;28;20039;-92
2023/07/04 09:48:01;;;;;;;17.20;6.72;;;;;;;28.07;49.75;98570.16;4967489;28;20041;-92
2023/07/04 09:50:30;;;;;;;12.80;6.72;;;;;;;27.95;51.63;98587.81;4972084;28;20039;-92
2023/07/04 09:53:07;;;;;;;15.48;6.10;;;;;;;27.95;50.29;98575.00;4968401;28;20129;-94
2023/07/04 09:55:37;;;;;;;13.90;6.00;;;;;;;28.43;50.52;98586.50;4970042;28;20089;-92
2023/07/04 09:58:19;;;;;;;12.40;5.70;;;;;;;28.71;49.44;98570.81;4967557;28;20042;-91
2023/07/04 10:01:00;;;;;;;13.13;5.82;;;;;;;28.97;48.78;98581.72;4961495;28;20051;-91
2023/07/04 10:03:25;;;;;;;18.98;6.32;;;;;;;29.17;48.33;98581.50;4965985;28;20094;-92
2023/07/04 10:05:52;;;;;;;13.75;5.53;;;;;;;29.03;47.49;98577.47;4975602;28;20042;-93
2023/07/04 10:08:18;;;;;;;13.90;5.97;;;;;;;28.68;49.63;98568.41;4965863;28;20043;-93
2023/07/04 10:10:51;;;;;;;10.82;5.90;;;;;;;28.59;50.04;98580.31;4970063;28;20560;-94
2023/07/04 10:13:23;;;;;;;13.27;5.80;;;;;;;29.03;51.69;98577.47;4964529;28;20040;-92
2023/07/04 10:15:50;;;;;;;10.65;5.20;;;;;;;29.64;48.55;98572.75;4971589;28;20049;-92
2023/07/04 10:18:24;;;;;;;12.43;5.47;;;;;;;29.90;47.54;98575.41;4978860;28;20106;-92
2023/07/04 10:20:54;;;;;;;13.45;6.10;;;;;;;29.14;48.24;98579.97;4962734;28;20039;-92
2023/07/04 10:23:21;;;;;;;12.27;5.82;;;;;;;29.52;47.90;98561.28;4972977;28;20041;-94
2023/07/04 10:25:48;;;;;;;13.95;6.50;;;;;;;28.83;47.40;98569.50;4983727;28;20035;-93
2023/07/04 10:28:17;;;;;;;12.43;6.00;;;;;;;28.21;50.16;98566.00;4963423;28;20093;-93
2023/07/04 10:30:49;;;;;;;9.68;5.63;;;;;;;27.91;51.28;98573.63;4962898;28;20130;-93
2023/07/04 10:33:18;;;;;;;10.85;5.65;;;;;;;28.12;49.65;98570.53;4960580;28;20050;-92
2023/07/04 10:35:47;;;;;;;13.82;5.32;;;;;;;28.33;48.33;98567.47;4967034;28;20142;-92
2023/07/04 10:38:36;;;;;;;9.73;4.90;;;;;;;28.89;47.74;98576.22;4961124;28;20031;-92
2023/07/04 10:41:14;;;;;;;11.63;5.47;;;;;;;29.44;46.30;98564.84;4969387;28;20035;-92
2023/07/04 10:43:44;;;;;;;;;;;;;;;29.78;46.15;98563.06;4973361;28;20069;-95
2023/07/04 10:46:18;;;;;;;9.45;5.05;;;;;;;29.60;44.71;98568.63;4983985;28;19953;-91
2023/07/04 10:48:49;;;;;;;10.07;4.80;;;;;;;29.78;44.42;98563.06;4970363;28;20042;-92
2023/07/04 10:51:19;;;;;;;10.65;5.20;;;;;;;29.73;44.13;98570.91;4966882;28;20054;-93
2023/07/04 10:53:45;;;;;;;10.13;4.97;;;;;;;29.56;44.77;98562.66;4968895;28;20035;-93
2023/07/04 10:56:17;;;;;;;11.20;5.05;;;;;;;29.62;46.40;98559.22;4967528;28;20049;-91
2023/07/04 10:58:47;;;;;;;9.57;4.70;;;;;;;29.60;44.47;98554.94;4963853;28;20043;-91
2023/07/04 11:01:20;;;;;;;12.75;4.60;;;;;;;29.80;47.54;98561.03;4964302;28;20077;-91
2023/07/04 11:03:52;;;;;;;10.35;4.75;;;;;;;29.92;45.22;98543.19;4965940;28;20069;-92
2023/07/04 11:06:29;;;;;;;11.85;5.22;;;;;;;29.57;45.16;98547.91;4966527;28;20454;-91
2023/07/04 11:08:56;;;;;;;9.25;4.60;;;;;;;30.17;43.09;98552.28;4967211;28;20058;-92
2023/07/04 11:11:26;;;;;;;12.60;5.05;;;;;;;30.07;43.56;98536.00;4970112;28;20039;-92
2023/07/04 11:13:55;;;;;;;14.18;4.95;;;;;;;30.14;45.12;98538.06;4964773;28;20035;-92
2023/07/04 11:16:27;;;;;;;9.52;4.50;;;;;;;30.06;43.76;98527.97;4963305;28;20131;-92
2023/07/04 11:19:03;;;;;;;9.68;4.45;;;;;;;30.37;44.03;98519.91;4960663;28;20038;-92
2023/07/04 11:21:30;;;;;;;8.88;4.68;;;;;;;30.64;40.50;98536.97;4964822;28;20035;-92
2023/07/04 11:24:12;;;;;;;11.27;5.18;;;;;;;30.17;43.23;98535.84;4970371;28;20046;-91